sensor_id;sensor_type;location;lat;lon;timestamp;P1;durP1;ratioP1;P2;durP2;ratioP2
68138;SDS011;54940;50.842;4.410;2023-04-25T00:01:49;0.10;;;0.10;;
68138;SDS011;54940;50.842;4.410;2023-04-25T00:04:16;0.17;;;0.17;;
68138;SDS011;54940;50.842;4.410;2023-04-25T00:06:41;0.60;;;0.50;;
68138;SDS011;54940;50.842;4.410;2023-04-25T00:09:07;0.15;;;0.15;;
68138;SDS011;54940;50.842;4.410;2023-04-25T00:11:34;0.65;;;0.20;;
68138;SDS011;54940;50.842;4.410;2023-04-25T00:14:01;0.57;;;0.57;;
68138;SDS011;54940;50.842;4.410;2023-04-25T00:16:28;0.85;;;0.75;;
68138;SDS011;54940;50.842;4.410;2023-04-25T00:18:55;3.72;;;1.65;;
68138;SDS011;54940;50.842;4.410;2023-04-25T00:21:21;0.10;;;0.10;;
68138;SDS011;54940;50.842;4.410;2023-04-25T00:23:49;0.10;;;0.10;;
68138;SDS011;54940;50.842;4.410;2023-04-25T00:26:15;0.20;;;0.20;;
68138;SDS011;54940;50.842;4.410;2023-04-25T00:28:43;0.30;;;0.30;;
68138;SDS011;54940;50.842;4.410;2023-04-25T00:31:08;0.63;;;0.63;;
68138;SDS011;54940;50.842;4.410;2023-04-25T00:33:34;0.30;;;0.30;;
68138;SDS011;54940;50.842;4.410;2023-04-25T00:36:00;0.10;;;0.10;;
68138;SDS011;54940;50.842;4.410;2023-04-25T00:38:26;0.38;;;0.38;;
68138;SDS011;54940;50.842;4.410;2023-04-25T00:40:52;0.30;;;0.30;;
68138;SDS011;54940;50.842;4.410;2023-04-25T00:43:18;0.40;;;0.40;;
68138;SDS011;54940;50.842;4.410;2023-04-25T00:45:43;0.30;;;0.30;;
68138;SDS011;54940;50.842;4.410;2023-04-25T00:48:11;4.35;;;1.80;;
68138;SDS011;54940;50.842;4.410;2023-04-25T00:50:39;0.10;;;0.10;;
68138;SDS011;54940;50.842;4.410;2023-04-25T00:53:05;3.13;;;0.68;;
68138;SDS011;54940;50.842;4.410;2023-04-25T00:55:31;0.32;;;0.32;;
68138;SDS011;54940;50.842;4.410;2023-04-25T00:57:57;0.10;;;0.10;;
68138;SDS011;54940;50.842;4.410;2023-04-25T01:00:23;0.17;;;0.17;;
68138;SDS011;54940;50.842;4.410;2023-04-25T01:02:49;0.00;;;0.00;;
68138;SDS011;54940;50.842;4.410;2023-04-25T01:05:15;0.20;;;0.20;;
68138;SDS011;54940;50.842;4.410;2023-04-25T01:07:41;0.10;;;0.10;;
68138;SDS011;54940;50.842;4.410;2023-04-25T01:10:06;0.10;;;0.10;;
68138;SDS011;54940;50.842;4.410;2023-04-25T01:12:35;0.10;;;0.10;;
68138;SDS011;54940;50.842;4.410;2023-04-25T01:15:00;2.63;;;1.10;;
68138;SDS011;54940;50.842;4.410;2023-04-25T01:17:26;3.97;;;1.38;;
68138;SDS011;54940;50.842;4.410;2023-04-25T01:19:52;0.20;;;0.20;;
68138;SDS011;54940;50.842;4.410;2023-04-25T01:22:18;0.22;;;0.22;;
68138;SDS011;54940;50.842;4.410;2023-04-25T01:24:47;0.10;;;0.10;;
68138;SDS011;54940;50.842;4.410;2023-04-25T01:27:13;0.80;;;0.80;;
68138;SDS011;54940;50.842;4.410;2023-04-25T01:29:39;2.40;;;0.73;;
68138;SDS011;54940;50.842;4.410;2023-04-25T01:32:05;2.80;;;1.27;;
68138;SDS011;54940;50.842;4.410;2023-04-25T01:34:31;0.20;;;0.20;;
68138;SDS011;54940;50.842;4.410;2023-04-25T01:36:57;0.10;;;0.10;;
68138;SDS011;54940;50.842;4.410;2023-04-25T01:39:26;0.10;;;0.10;;
68138;SDS011;54940;50.842;4.410;2023-04-25T01:41:54;5.35;;;2.58;;
68138;SDS011;54940;50.842;4.410;2023-04-25T01:44:20;0.22;;;0.22;;
68138;SDS011;54940;50.842;4.410;2023-04-25T01:46:46;0.10;;;0.10;;
68138;SDS011;54940;50.842;4.410;2023-04-25T01:49:12;0.30;;;0.30;;
68138;SDS011;54940;50.842;4.410;2023-04-25T01:51:38;0.20;;;0.20;;
68138;SDS011;54940;50.842;4.410;2023-04-25T01:54:03;0.10;;;0.10;;
68138;SDS011;54940;50.842;4.410;2023-04-25T01:56:29;1.65;;;0.45;;
68138;SDS011;54940;50.842;4.410;2023-04-25T01:59:01;0.10;;;0.10;;
68138;SDS011;54940;50.842;4.410;2023-04-25T02:01:27;0.13;;;0.13;;
68138;SDS011;54940;50.842;4.410;2023-04-25T02:03:53;0.10;;;0.10;;
68138;SDS011;54940;50.842;4.410;2023-04-25T02:06:19;0.10;;;0.10;;
68138;SDS011;54940;50.842;4.410;2023-04-25T02:08:44;0.45;;;0.45;;
68138;SDS011;54940;50.842;4.410;2023-04-25T02:11:10;0.17;;;0.17;;
68138;SDS011;54940;50.842;4.410;2023-04-25T02:13:51;0.50;;;0.50;;
68138;SDS011;54940;50.842;4.410;2023-04-25T02:16:16;7.82;;;0.82;;
68138;SDS011;54940;50.842;4.410;2023-04-25T02:18:42;4.20;;;1.38;;
68138;SDS011;54940;50.842;4.410;2023-04-25T02:21:09;0.40;;;0.40;;
68138;SDS011;54940;50.842;4.410;2023-04-25T02:23:36;0.10;;;0.10;;
68138;SDS011;54940;50.842;4.410;2023-04-25T02:26:02;0.10;;;0.10;;
68138;SDS011;54940;50.842;4.410;2023-04-25T02:28:28;0.10;;;0.10;;
68138;SDS011;54940;50.842;4.410;2023-04-25T02:30:54;0.10;;;0.10;;
68138;SDS011;54940;50.842;4.410;2023-04-25T02:33:19;0.20;;;0.20;;
68138;SDS011;54940;50.842;4.410;2023-04-25T02:35:46;0.10;;;0.10;;
68138;SDS011;54940;50.842;4.410;2023-04-25T02:38:11;0.20;;;0.20;;
68138;SDS011;54940;50.842;4.410;2023-04-25T02:40:37;1.33;;;1.05;;
68138;SDS011;54940;50.842;4.410;2023-04-25T02:43:03;0.35;;;0.35;;
68138;SDS011;54940;50.842;4.410;2023-04-25T02:45:28;2.70;;;1.10;;
68138;SDS011;54940;50.842;4.410;2023-04-25T02:47:57;0.10;;;0.10;;
68138;SDS011;54940;50.842;4.410;2023-04-25T02:50:22;0.20;;;0.20;;
68138;SDS011;54940;50.842;4.410;2023-04-25T02:52:48;0.10;;;0.10;;
68138;SDS011;54940;50.842;4.410;2023-04-25T02:55:18;0.10;;;0.10;;
68138;SDS011;54940;50.842;4.410;2023-04-25T02:57:44;0.10;;;0.10;;
68138;SDS011;54940;50.842;4.410;2023-04-25T03:00:10;1.90;;;1.75;;
68138;SDS011;54940;50.842;4.410;2023-04-25T03:02:36;0.08;;;0.08;;
68138;SDS011;54940;50.842;4.410;2023-04-25T03:05:02;0.10;;;0.10;;
68138;SDS011;54940;50.842;4.410;2023-04-25T03:07:28;0.10;;;0.10;;
68138;SDS011;54940;50.842;4.410;2023-04-25T03:09:56;0.10;;;0.10;;
68138;SDS011;54940;50.842;4.410;2023-04-25T03:12:24;0.10;;;0.10;;
68138;SDS011;54940;50.842;4.410;2023-04-25T03:14:50;0.50;;;0.50;;
68138;SDS011;54940;50.842;4.410;2023-04-25T03:17:15;0.10;;;0.10;;
68138;SDS011;54940;50.842;4.410;2023-04-25T03:19:41;0.20;;;0.20;;
68138;SDS011;54940;50.842;4.410;2023-04-25T03:22:07;2.05;;;1.08;;
68138;SDS011;54940;50.842;4.410;2023-04-25T03:24:32;0.10;;;0.10;;
68138;SDS011;54940;50.842;4.410;2023-04-25T03:26:58;0.10;;;0.10;;
68138;SDS011;54940;50.842;4.410;2023-04-25T03:29:27;0.70;;;0.70;;
68138;SDS011;54940;50.842;4.410;2023-04-25T03:31:55;0.20;;;0.20;;
68138;SDS011;54940;50.842;4.410;2023-04-25T03:34:20;0.32;;;0.32;;
68138;SDS011;54940;50.842;4.410;2023-04-25T03:36:46;0.10;;;0.10;;
68138;SDS011;54940;50.842;4.410;2023-04-25T03:39:12;0.20;;;0.20;;
68138;SDS011;54940;50.842;4.410;2023-04-25T03:41:38;2.17;;;1.33;;
68138;SDS011;54940;50.842;4.410;2023-04-25T03:44:04;0.43;;;0.43;;
68138;SDS011;54940;50.842;4.410;2023-04-25T03:46:32;0.10;;;0.10;;
68138;SDS011;54940;50.842;4.410;2023-04-25T03:48:57;8.02;;;1.80;;
68138;SDS011;54940;50.842;4.410;2023-04-25T03:51:24;8.10;;;3.50;;
68138;SDS011;54940;50.842;4.410;2023-04-25T03:53:50;0.35;;;0.28;;
68138;SDS011;54940;50.842;4.410;2023-04-25T03:56:16;0.10;;;0.10;;
68138;SDS011;54940;50.842;4.410;2023-04-25T03:58:42;0.68;;;0.68;;
68138;SDS011;54940;50.842;4.410;2023-04-25T04:01:09;0.10;;;0.10;;
68138;SDS011;54940;50.842;4.410;2023-04-25T04:03:35;0.10;;;0.10;;
68138;SDS011;54940;50.842;4.410;2023-04-25T04:06:02;0.10;;;0.10;;
68138;SDS011;54940;50.842;4.410;2023-04-25T04:08:32;0.10;;;0.10;;
68138;SDS011;54940;50.842;4.410;2023-04-25T04:10:58;0.10;;;0.10;;
68138;SDS011;54940;50.842;4.410;2023-04-25T04:13:27;1.92;;;1.75;;
68138;SDS011;54940;50.842;4.410;2023-04-25T04:15:53;0.10;;;0.10;;
68138;SDS011;54940;50.842;4.410;2023-04-25T04:18:20;0.17;;;0.17;;
68138;SDS011;54940;50.842;4.410;2023-04-25T04:20:46;0.15;;;0.15;;
68138;SDS011;54940;50.842;4.410;2023-04-25T04:23:12;0.63;;;0.63;;
68138;SDS011;54940;50.842;4.410;2023-04-25T04:25:39;0.10;;;0.10;;
68138;SDS011;54940;50.842;4.410;2023-04-25T04:28:05;0.30;;;0.30;;
68138;SDS011;54940;50.842;4.410;2023-04-25T04:30:32;0.10;;;0.10;;
68138;SDS011;54940;50.842;4.410;2023-04-25T04:33:02;0.10;;;0.10;;
68138;SDS011;54940;50.842;4.410;2023-04-25T04:35:28;0.22;;;0.22;;
68138;SDS011;54940;50.842;4.410;2023-04-25T04:37:54;0.40;;;0.40;;
68138;SDS011;54940;50.842;4.410;2023-04-25T04:40:20;0.45;;;0.45;;
68138;SDS011;54940;50.842;4.410;2023-04-25T04:42:46;0.10;;;0.10;;
68138;SDS011;54940;50.842;4.410;2023-04-25T04:45:13;0.10;;;0.10;;
68138;SDS011;54940;50.842;4.410;2023-04-25T04:47:39;0.10;;;0.10;;
68138;SDS011;54940;50.842;4.410;2023-04-25T04:50:09;0.40;;;0.40;;
68138;SDS011;54940;50.842;4.410;2023-04-25T04:52:37;0.10;;;0.10;;
68138;SDS011;54940;50.842;4.410;2023-04-25T04:55:04;0.15;;;0.15;;
68138;SDS011;54940;50.842;4.410;2023-04-25T04:57:33;0.10;;;0.10;;
68138;SDS011;54940;50.842;4.410;2023-04-25T04:59:59;5.18;;;3.35;;
68138;SDS011;54940;50.842;4.410;2023-04-25T05:02:30;0.10;;;0.10;;
68138;SDS011;54940;50.842;4.410;2023-04-25T05:04:55;0.20;;;0.20;;
68138;SDS011;54940;50.842;4.410;2023-04-25T05:07:21;0.15;;;0.15;;
68138;SDS011;54940;50.842;4.410;2023-04-25T05:09:47;0.10;;;0.10;;
68138;SDS011;54940;50.842;4.410;2023-04-25T05:12:14;0.13;;;0.13;;
68138;SDS011;54940;50.842;4.410;2023-04-25T05:14:40;1.55;;;0.57;;
68138;SDS011;54940;50.842;4.410;2023-04-25T05:17:06;0.55;;;0.55;;
68138;SDS011;54940;50.842;4.410;2023-04-25T05:19:33;0.10;;;0.10;;
68138;SDS011;54940;50.842;4.410;2023-04-25T05:21:59;0.10;;;0.10;;
68138;SDS011;54940;50.842;4.410;2023-04-25T05:24:27;0.10;;;0.10;;
68138;SDS011;54940;50.842;4.410;2023-04-25T05:26:53;0.20;;;0.20;;
68138;SDS011;54940;50.842;4.410;2023-04-25T05:29:19;0.25;;;0.25;;
68138;SDS011;54940;50.842;4.410;2023-04-25T05:31:44;0.20;;;0.20;;
68138;SDS011;54940;50.842;4.410;2023-04-25T05:34:10;0.10;;;0.10;;
68138;SDS011;54940;50.842;4.410;2023-04-25T05:36:35;0.30;;;0.30;;
68138;SDS011;54940;50.842;4.410;2023-04-25T05:39:01;0.10;;;0.10;;
68138;SDS011;54940;50.842;4.410;2023-04-25T05:41:29;0.30;;;0.30;;
68138;SDS011;54940;50.842;4.410;2023-04-25T05:43:54;0.10;;;0.10;;
68138;SDS011;54940;50.842;4.410;2023-04-25T05:46:23;0.10;;;0.10;;
68138;SDS011;54940;50.842;4.410;2023-04-25T05:48:49;0.10;;;0.10;;
68138;SDS011;54940;50.842;4.410;2023-04-25T05:51:15;0.10;;;0.10;;
68138;SDS011;54940;50.842;4.410;2023-04-25T05:53:41;0.08;;;0.08;;
68138;SDS011;54940;50.842;4.410;2023-04-25T05:56:06;0.10;;;0.10;;
68138;SDS011;54940;50.842;4.410;2023-04-25T05:58:32;1.02;;;0.77;;
68138;SDS011;54940;50.842;4.410;2023-04-25T06:00:58;1.10;;;1.10;;
68138;SDS011;54940;50.842;4.410;2023-04-25T06:03:24;0.20;;;0.20;;
68138;SDS011;54940;50.842;4.410;2023-04-25T06:05:50;2.72;;;1.08;;
68138;SDS011;54940;50.842;4.410;2023-04-25T06:08:15;8.95;;;2.65;;
68138;SDS011;54940;50.842;4.410;2023-04-25T06:10:41;0.28;;;0.28;;
68138;SDS011;54940;50.842;4.410;2023-04-25T06:13:07;0.10;;;0.10;;
68138;SDS011;54940;50.842;4.410;2023-04-25T06:15:32;2.22;;;1.30;;
68138;SDS011;54940;50.842;4.410;2023-04-25T06:17:58;3.40;;;3.05;;
68138;SDS011;54940;50.842;4.410;2023-04-25T06:20:24;0.95;;;0.80;;
68138;SDS011;54940;50.842;4.410;2023-04-25T06:22:50;3.83;;;2.28;;
68138;SDS011;54940;50.842;4.410;2023-04-25T06:25:21;0.20;;;0.20;;
68138;SDS011;54940;50.842;4.410;2023-04-25T06:27:46;0.10;;;0.10;;
68138;SDS011;54940;50.842;4.410;2023-04-25T06:30:12;0.22;;;0.22;;
68138;SDS011;54940;50.842;4.410;2023-04-25T06:32:38;0.10;;;0.10;;
68138;SDS011;54940;50.842;4.410;2023-04-25T06:35:04;0.10;;;0.10;;
68138;SDS011;54940;50.842;4.410;2023-04-25T06:37:30;0.40;;;0.40;;
68138;SDS011;54940;50.842;4.410;2023-04-25T06:39:56;0.25;;;0.25;;
68138;SDS011;54940;50.842;4.410;2023-04-25T06:42:22;0.10;;;0.10;;
68138;SDS011;54940;50.842;4.410;2023-04-25T06:44:47;0.20;;;0.20;;
68138;SDS011;54940;50.842;4.410;2023-04-25T06:47:13;0.10;;;0.10;;
68138;SDS011;54940;50.842;4.410;2023-04-25T06:49:39;1.35;;;0.73;;
68138;SDS011;54940;50.842;4.410;2023-04-25T06:52:05;0.10;;;0.10;;
68138;SDS011;54940;50.842;4.410;2023-04-25T06:54:32;0.10;;;0.10;;
68138;SDS011;54940;50.842;4.410;2023-04-25T06:56:57;0.10;;;0.10;;
68138;SDS011;54940;50.842;4.410;2023-04-25T06:59:23;0.68;;;0.68;;
68138;SDS011;54940;50.842;4.410;2023-04-25T07:01:49;0.20;;;0.20;;
68138;SDS011;54940;50.842;4.410;2023-04-25T07:04:14;0.10;;;0.10;;
68138;SDS011;54940;50.842;4.410;2023-04-25T07:06:45;0.10;;;0.10;;
68138;SDS011;54940;50.842;4.410;2023-04-25T07:09:12;0.77;;;0.50;;
68138;SDS011;54940;50.842;4.410;2023-04-25T07:11:38;0.38;;;0.30;;
68138;SDS011;54940;50.842;4.410;2023-04-25T07:14:03;0.10;;;0.10;;
68138;SDS011;54940;50.842;4.410;2023-04-25T07:16:29;0.10;;;0.10;;
68138;SDS011;54940;50.842;4.410;2023-04-25T07:18:57;0.75;;;0.75;;
68138;SDS011;54940;50.842;4.410;2023-04-25T07:21:22;0.90;;;0.73;;
68138;SDS011;54940;50.842;4.410;2023-04-25T07:23:48;0.10;;;0.10;;
68138;SDS011;54940;50.842;4.410;2023-04-25T07:26:16;0.10;;;0.10;;
68138;SDS011;54940;50.842;4.410;2023-04-25T07:28:42;0.20;;;0.20;;
68138;SDS011;54940;50.842;4.410;2023-04-25T07:31:08;0.10;;;0.10;;
68138;SDS011;54940;50.842;4.410;2023-04-25T07:33:36;1.88;;;0.95;;
68138;SDS011;54940;50.842;4.410;2023-04-25T07:36:02;0.10;;;0.10;;
68138;SDS011;54940;50.842;4.410;2023-04-25T07:38:28;0.10;;;0.10;;
68138;SDS011;54940;50.842;4.410;2023-04-25T07:40:53;0.10;;;0.10;;
68138;SDS011;54940;50.842;4.410;2023-04-25T07:43:19;0.28;;;0.28;;
68138;SDS011;54940;50.842;4.410;2023-04-25T07:45:45;0.10;;;0.10;;
68138;SDS011;54940;50.842;4.410;2023-04-25T07:48:16;1.90;;;1.55;;
68138;SDS011;54940;50.842;4.410;2023-04-25T07:50:45;0.10;;;0.10;;
68138;SDS011;54940;50.842;4.410;2023-04-25T07:53:11;0.10;;;0.10;;
68138;SDS011;54940;50.842;4.410;2023-04-25T07:55:37;0.10;;;0.10;;
68138;SDS011;54940;50.842;4.410;2023-04-25T07:58:05;0.10;;;0.10;;
68138;SDS011;54940;50.842;4.410;2023-04-25T08:00:31;0.10;;;0.10;;
68138;SDS011;54940;50.842;4.410;2023-04-25T08:02:57;1.77;;;1.00;;
68138;SDS011;54940;50.842;4.410;2023-04-25T08:05:22;0.10;;;0.10;;
68138;SDS011;54940;50.842;4.410;2023-04-25T08:07:50;0.20;;;0.20;;
68138;SDS011;54940;50.842;4.410;2023-04-25T08:10:19;0.20;;;0.20;;
68138;SDS011;54940;50.842;4.410;2023-04-25T08:12:45;4.10;;;1.95;;
68138;SDS011;54940;50.842;4.410;2023-04-25T08:15:11;0.10;;;0.10;;
68138;SDS011;54940;50.842;4.410;2023-04-25T08:17:39;1.77;;;1.48;;
68138;SDS011;54940;50.842;4.410;2023-04-25T08:20:05;1.75;;;1.40;;
68138;SDS011;54940;50.842;4.410;2023-04-25T08:22:31;1.05;;;1.05;;
68138;SDS011;54940;50.842;4.410;2023-04-25T08:24:57;0.10;;;0.10;;
68138;SDS011;54940;50.842;4.410;2023-04-25T08:27:23;0.10;;;0.10;;
68138;SDS011;54940;50.842;4.410;2023-04-25T08:29:49;0.70;;;0.70;;
68138;SDS011;54940;50.842;4.410;2023-04-25T08:32:15;0.10;;;0.10;;
68138;SDS011;54940;50.842;4.410;2023-04-25T08:34:41;0.10;;;0.10;;
68138;SDS011;54940;50.842;4.410;2023-04-25T08:37:09;0.10;;;0.10;;
68138;SDS011;54940;50.842;4.410;2023-04-25T08:39:38;0.10;;;0.10;;
68138;SDS011;54940;50.842;4.410;2023-04-25T08:42:05;0.10;;;0.10;;
68138;SDS011;54940;50.842;4.410;2023-04-25T08:44:37;3.13;;;1.25;;
68138;SDS011;54940;50.842;4.410;2023-04-25T08:47:03;0.10;;;0.10;;
68138;SDS011;54940;50.842;4.410;2023-04-25T08:49:33;0.10;;;0.10;;
68138;SDS011;54940;50.842;4.410;2023-04-25T08:51:59;0.28;;;0.28;;
68138;SDS011;54940;50.842;4.410;2023-04-25T08:54:27;0.10;;;0.10;;
68138;SDS011;54940;50.842;4.410;2023-04-25T08:56:54;0.10;;;0.10;;
68138;SDS011;54940;50.842;4.410;2023-04-25T08:59:21;0.10;;;0.10;;
68138;SDS011;54940;50.842;4.410;2023-04-25T09:01:48;0.10;;;0.10;;
68138;SDS011;54940;50.842;4.410;2023-04-25T09:04:14;0.10;;;0.10;;
68138;SDS011;54940;50.842;4.410;2023-04-25T09:06:40;0.10;;;0.10;;
68138;SDS011;54940;50.842;4.410;2023-04-25T09:09:07;0.20;;;0.20;;
68138;SDS011;54940;50.842;4.410;2023-04-25T09:11:34;0.10;;;0.10;;
68138;SDS011;54940;50.842;4.410;2023-04-25T09:14:17;0.10;;;0.10;;
68138;SDS011;54940;50.842;4.410;2023-04-25T09:21:56;0.57;;;0.57;;
68138;SDS011;54940;50.842;4.410;2023-04-25T09:27:05;0.10;;;0.10;;
68138;SDS011;54940;50.842;4.410;2023-04-25T09:29:33;0.20;;;0.20;;
68138;SDS011;54940;50.842;4.410;2023-04-25T09:32:23;0.10;;;0.10;;
68138;SDS011;54940;50.842;4.410;2023-04-25T09:34:55;0.00;;;0.00;;
68138;SDS011;54940;50.842;4.410;2023-04-25T09:37:25;0.10;;;0.10;;
68138;SDS011;54940;50.842;4.410;2023-04-25T09:39:56;0.10;;;0.10;;
68138;SDS011;54940;50.842;4.410;2023-04-25T09:42:27;0.52;;;0.43;;
68138;SDS011;54940;50.842;4.410;2023-04-25T09:44:57;0.22;;;0.22;;
68138;SDS011;54940;50.842;4.410;2023-04-25T09:47:24;5.00;;;2.15;;
68138;SDS011;54940;50.842;4.410;2023-04-25T09:49:51;0.10;;;0.10;;
68138;SDS011;54940;50.842;4.410;2023-04-25T09:52:21;0.10;;;0.10;;
68138;SDS011;54940;50.842;4.410;2023-04-25T09:54:50;1.58;;;1.48;;
68138;SDS011;54940;50.842;4.410;2023-04-25T09:57:17;2.33;;;1.10;;
68138;SDS011;54940;50.842;4.410;2023-04-25T09:59:47;0.20;;;0.20;;
68138;SDS011;54940;50.842;4.410;2023-04-25T10:02:18;0.10;;;0.10;;
68138;SDS011;54940;50.842;4.410;2023-04-25T10:04:47;0.52;;;0.40;;
68138;SDS011;54940;50.842;4.410;2023-04-25T10:07:19;0.75;;;0.75;;
68138;SDS011;54940;50.842;4.410;2023-04-25T10:09:48;0.65;;;0.43;;
68138;SDS011;54940;50.842;4.410;2023-04-25T10:12:16;0.20;;;0.20;;
68138;SDS011;54940;50.842;4.410;2023-04-25T10:14:42;0.08;;;0.08;;
68138;SDS011;54940;50.842;4.410;2023-04-25T10:17:08;0.63;;;0.63;;
68138;SDS011;54940;50.842;4.410;2023-04-25T10:19:38;0.13;;;0.13;;
68138;SDS011;54940;50.842;4.410;2023-04-25T10:22:08;0.22;;;0.22;;
68138;SDS011;54940;50.842;4.410;2023-04-25T10:24:39;0.63;;;0.63;;
68138;SDS011;54940;50.842;4.410;2023-04-25T10:27:08;0.20;;;0.20;;
68138;SDS011;54940;50.842;4.410;2023-04-25T10:29:35;2.25;;;1.55;;
68138;SDS011;54940;50.842;4.410;2023-04-25T10:32:01;3.97;;;2.78;;
68138;SDS011;54940;50.842;4.410;2023-04-25T10:34:43;0.00;;;0.00;;
68138;SDS011;54940;50.842;4.410;2023-04-25T10:37:12;0.52;;;0.52;;
68138;SDS011;54940;50.842;4.410;2023-04-25T10:39:40;0.10;;;0.10;;
68138;SDS011;54940;50.842;4.410;2023-04-25T10:42:06;3.10;;;1.45;;
68138;SDS011;54940;50.842;4.410;2023-04-25T10:44:33;0.10;;;0.10;;
68138;SDS011;54940;50.842;4.410;2023-04-25T10:47:00;0.10;;;0.10;;
68138;SDS011;54940;50.842;4.410;2023-04-25T10:49:33;1.02;;;0.88;;
68138;SDS011;54940;50.842;4.410;2023-04-25T10:54:53;0.52;;;0.52;;
68138;SDS011;54940;50.842;4.410;2023-04-25T10:57:53;0.20;;;0.20;;
68138;SDS011;54940;50.842;4.410;2023-04-25T11:00:18;0.10;;;0.10;;
68138;SDS011;54940;50.842;4.410;2023-04-25T11:02:57;0.15;;;0.15;;
68138;SDS011;54940;50.842;4.410;2023-04-25T11:05:33;0.10;;;0.10;;
68138;SDS011;54940;50.842;4.410;2023-04-25T11:08:01;1.35;;;1.13;;
68138;SDS011;54940;50.842;4.410;2023-04-25T11:10:28;3.47;;;1.08;;
68138;SDS011;54940;50.842;4.410;2023-04-25T11:12:55;0.10;;;0.10;;
68138;SDS011;54940;50.842;4.410;2023-04-25T11:15:22;0.30;;;0.30;;
68138;SDS011;54940;50.842;4.410;2023-04-25T11:17:50;0.30;;;0.30;;
68138;SDS011;54940;50.842;4.410;2023-04-25T11:20:16;0.10;;;0.10;;
68138;SDS011;54940;50.842;4.410;2023-04-25T11:22:43;0.10;;;0.10;;
68138;SDS011;54940;50.842;4.410;2023-04-25T11:25:10;1.75;;;1.02;;
68138;SDS011;54940;50.842;4.410;2023-04-25T11:27:37;0.22;;;0.22;;
68138;SDS011;54940;50.842;4.410;2023-04-25T11:30:24;0.10;;;0.10;;
68138;SDS011;54940;50.842;4.410;2023-04-25T11:32:50;0.20;;;0.20;;
68138;SDS011;54940;50.842;4.410;2023-04-25T11:35:17;0.10;;;0.10;;
68138;SDS011;54940;50.842;4.410;2023-04-25T11:37:44;0.45;;;0.45;;
68138;SDS011;54940;50.842;4.410;2023-04-25T11:40:10;0.43;;;0.43;;
68138;SDS011;54940;50.842;4.410;2023-04-25T11:42:43;0.22;;;0.22;;
68138;SDS011;54940;50.842;4.410;2023-04-25T11:45:10;0.10;;;0.10;;
68138;SDS011;54940;50.842;4.410;2023-04-25T11:47:38;0.38;;;0.38;;
68138;SDS011;54940;50.842;4.410;2023-04-25T11:50:05;0.10;;;0.10;;
68138;SDS011;54940;50.842;4.410;2023-04-25T11:52:36;0.00;;;0.00;;
68138;SDS011;54940;50.842;4.410;2023-04-25T11:55:09;0.10;;;0.10;;
68138;SDS011;54940;50.842;4.410;2023-04-25T11:57:40;0.15;;;0.15;;
68138;SDS011;54940;50.842;4.410;2023-04-25T12:02:36;0.00;;;0.00;;
68138;SDS011;54940;50.842;4.410;2023-04-25T12:05:05;0.22;;;0.22;;
68138;SDS011;54940;50.842;4.410;2023-04-25T12:07:33;0.10;;;0.10;;
68138;SDS011;54940;50.842;4.410;2023-04-25T12:10:10;0.00;;;0.00;;
68138;SDS011;54940;50.842;4.410;2023-04-25T12:12:38;0.10;;;0.10;;
68138;SDS011;54940;50.842;4.410;2023-04-25T12:17:44;0.20;;;0.20;;
68138;SDS011;54940;50.842;4.410;2023-04-25T12:20:18;0.00;;;0.00;;
68138;SDS011;54940;50.842;4.410;2023-04-25T12:22:46;0.10;;;0.10;;
68138;SDS011;54940;50.842;4.410;2023-04-25T12:25:20;0.00;;;0.00;;
68138;SDS011;54940;50.842;4.410;2023-04-25T12:28:13;0.10;;;0.10;;
68138;SDS011;54940;50.842;4.410;2023-04-25T12:33:28;2.40;;;1.27;;
68138;SDS011;54940;50.842;4.410;2023-04-25T12:35:55;0.20;;;0.20;;
68138;SDS011;54940;50.842;4.410;2023-04-25T12:38:26;0.10;;;0.10;;
68138;SDS011;54940;50.842;4.410;2023-04-25T12:40:54;0.10;;;0.10;;
68138;SDS011;54940;50.842;4.410;2023-04-25T12:43:20;0.00;;;0.00;;
68138;SDS011;54940;50.842;4.410;2023-04-25T12:45:49;0.00;;;0.00;;
68138;SDS011;54940;50.842;4.410;2023-04-25T12:48:19;0.10;;;0.10;;
68138;SDS011;54940;50.842;4.410;2023-04-25T12:50:47;0.00;;;0.00;;
68138;SDS011;54940;50.842;4.410;2023-04-25T12:53:17;0.10;;;0.10;;
68138;SDS011;54940;50.842;4.410;2023-04-25T12:55:47;0.10;;;0.10;;
68138;SDS011;54940;50.842;4.410;2023-04-25T12:58:14;0.00;;;0.00;;
68138;SDS011;54940;50.842;4.410;2023-04-25T13:00:43;0.05;;;0.05;;
68138;SDS011;54940;50.842;4.410;2023-04-25T13:03:09;0.10;;;0.10;;
68138;SDS011;54940;50.842;4.410;2023-04-25T13:05:38;0.10;;;0.10;;
68138;SDS011;54940;50.842;4.410;2023-04-25T13:08:04;0.20;;;0.20;;
68138;SDS011;54940;50.842;4.410;2023-04-25T13:10:30;0.10;;;0.10;;
68138;SDS011;54940;50.842;4.410;2023-04-25T13:12:58;0.00;;;0.00;;
68138;SDS011;54940;50.842;4.410;2023-04-25T13:15:25;0.08;;;0.08;;
68138;SDS011;54940;50.842;4.410;2023-04-25T13:17:51;0.17;;;0.17;;
68138;SDS011;54940;50.842;4.410;2023-04-25T13:20:17;0.10;;;0.10;;
68138;SDS011;54940;50.842;4.410;2023-04-25T13:22:47;0.00;;;0.00;;
68138;SDS011;54940;50.842;4.410;2023-04-25T13:25:13;0.13;;;0.13;;
68138;SDS011;54940;50.842;4.410;2023-04-25T13:27:38;0.00;;;0.00;;
68138;SDS011;54940;50.842;4.410;2023-04-25T13:30:05;2.83;;;0.77;;
68138;SDS011;54940;50.842;4.410;2023-04-25T13:32:36;0.00;;;0.00;;
68138;SDS011;54940;50.842;4.410;2023-04-25T13:35:06;1.17;;;1.17;;
68138;SDS011;54940;50.842;4.410;2023-04-25T13:37:33;2.60;;;2.50;;
68138;SDS011;54940;50.842;4.410;2023-04-25T13:40:00;2.72;;;2.63;;
68138;SDS011;54940;50.842;4.410;2023-04-25T13:42:33;3.22;;;3.10;;
68138;SDS011;54940;50.842;4.410;2023-04-25T13:44:59;9.43;;;4.47;;
68138;SDS011;54940;50.842;4.410;2023-04-25T13:47:25;4.05;;;3.85;;
68138;SDS011;54940;50.842;4.410;2023-04-25T13:49:52;5.97;;;5.57;;
68138;SDS011;54940;50.842;4.410;2023-04-25T13:52:17;4.40;;;4.20;;
68138;SDS011;54940;50.842;4.410;2023-04-25T13:54:43;4.00;;;3.80;;
68138;SDS011;54940;50.842;4.410;2023-04-25T13:57:11;3.95;;;3.75;;
68138;SDS011;54940;50.842;4.410;2023-04-25T13:59:37;4.13;;;3.92;;
68138;SDS011;54940;50.842;4.410;2023-04-25T14:02:04;5.18;;;4.88;;
68138;SDS011;54940;50.842;4.410;2023-04-25T14:04:29;3.22;;;3.08;;
68138;SDS011;54940;50.842;4.410;2023-04-25T14:06:55;0.10;;;0.10;;
68138;SDS011;54940;50.842;4.410;2023-04-25T14:09:21;0.00;;;0.00;;
68138;SDS011;54940;50.842;4.410;2023-04-25T14:11:50;0.40;;;0.40;;
68138;SDS011;54940;50.842;4.410;2023-04-25T14:14:20;0.05;;;0.05;;
68138;SDS011;54940;50.842;4.410;2023-04-25T14:16:47;0.10;;;0.10;;
68138;SDS011;54940;50.842;4.410;2023-04-25T14:19:13;0.10;;;0.10;;
68138;SDS011;54940;50.842;4.410;2023-04-25T14:21:40;0.10;;;0.10;;
68138;SDS011;54940;50.842;4.410;2023-04-25T14:24:06;0.10;;;0.10;;
68138;SDS011;54940;50.842;4.410;2023-04-25T14:26:33;0.10;;;0.10;;
68138;SDS011;54940;50.842;4.410;2023-04-25T14:29:01;0.10;;;0.10;;
68138;SDS011;54940;50.842;4.410;2023-04-25T14:31:26;0.00;;;0.00;;
68138;SDS011;54940;50.842;4.410;2023-04-25T14:33:53;0.10;;;0.10;;
68138;SDS011;54940;50.842;4.410;2023-04-25T14:36:18;0.10;;;0.10;;
68138;SDS011;54940;50.842;4.410;2023-04-25T14:38:44;1.38;;;1.27;;
68138;SDS011;54940;50.842;4.410;2023-04-25T14:41:10;0.13;;;0.13;;
68138;SDS011;54940;50.842;4.410;2023-04-25T14:43:36;1.30;;;1.30;;
68138;SDS011;54940;50.842;4.410;2023-04-25T14:46:07;2.38;;;2.28;;
68138;SDS011;54940;50.842;4.410;2023-04-25T14:48:33;3.88;;;3.67;;
68138;SDS011;54940;50.842;4.410;2023-04-25T14:51:00;3.75;;;3.55;;
68138;SDS011;54940;50.842;4.410;2023-04-25T14:53:26;4.28;;;4.07;;
68138;SDS011;54940;50.842;4.410;2023-04-25T14:55:52;4.32;;;4.13;;
68138;SDS011;54940;50.842;4.410;2023-04-25T14:58:18;4.07;;;3.88;;
68138;SDS011;54940;50.842;4.410;2023-04-25T15:00:45;4.43;;;4.22;;
68138;SDS011;54940;50.842;4.410;2023-04-25T15:03:11;4.53;;;4.32;;
68138;SDS011;54940;50.842;4.410;2023-04-25T15:05:38;4.47;;;4.28;;
68138;SDS011;54940;50.842;4.410;2023-04-25T15:08:04;4.80;;;4.50;;